sensor_id;sensor_type;location;lat;lon;timestamp;pressure;altitude;pressure_sealevel;temperature;humidity
55994;BME280;67425;52.126;20.638;2023-07-31T00:01:44;57472.72;;;-144.78;51.32
55994;BME280;67425;52.126;20.638;2023-07-31T00:04:09;57501.81;;;-144.78;51.64
55994;BME280;67425;52.126;20.638;2023-07-31T00:06:35;57491.41;;;-144.78;51.91
55994;BME280;67425;52.126;20.638;2023-07-31T00:09:00;57510.13;;;-144.78;52.62
55994;BME280;67425;52.126;20.638;2023-07-31T00:11:25;57478.97;;;-144.78;51.96
55994;BME280;67425;52.126;20.638;2023-07-31T00:13:53;57518.41;;;-144.78;51.41
55994;BME280;67425;52.126;20.638;2023-07-31T00:16:18;57474.81;;;-144.78;51.29
55994;BME280;67425;52.126;20.638;2023-07-31T00:18:43;57487.28;;;-144.78;52.07
55994;BME280;67425;52.126;20.638;2023-07-31T00:21:09;57516.34;;;-144.78;52.04
55994;BME280;67425;52.126;20.638;2023-07-31T00:23:34;57501.81;;;-144.78;52.66
55994;BME280;67425;52.126;20.638;2023-07-31T00:26:00;57520.50;;;-144.78;53.23
55994;BME280;67425;52.126;20.638;2023-07-31T00:28:25;57501.81;;;-144.78;52.90
55994;BME280;67425;52.126;20.638;2023-07-31T00:30:50;57483.13;;;-144.78;52.27
55994;BME280;67425;52.126;20.638;2023-07-31T00:33:16;57493.50;;;-144.78;52.61
55994;BME280;67425;52.126;20.638;2023-07-31T00:35:41;57489.34;;;-144.78;53.28
55994;BME280;67425;52.126;20.638;2023-07-31T00:38:06;57518.41;;;-144.78;52.74
55994;BME280;67425;52.126;20.638;2023-07-31T00:40:37;57495.56;;;-144.78;52.93
55994;BME280;67425;52.126;20.638;2023-07-31T00:43:03;57505.97;;;-144.78;53.55
55994;BME280;67425;52.126;20.638;2023-07-31T00:45:29;57485.19;;;-144.78;53.53
55994;BME280;67425;52.126;20.638;2023-07-31T00:47:54;57474.81;;;-144.78;53.35
55994;BME280;67425;52.126;20.638;2023-07-31T00:50:20;57499.72;;;-144.78;53.38
55994;BME280;67425;52.126;20.638;2023-07-31T00:52:47;57495.56;;;-144.78;52.99
55994;BME280;67425;52.126;20.638;2023-07-31T00:55:12;57478.97;;;-144.78;52.97
55994;BME280;67425;52.126;20.638;2023-07-31T00:57:38;57493.50;;;-144.78;53.47
55994;BME280;67425;52.126;20.638;2023-07-31T01:00:06;57518.41;;;-144.78;54.20
55994;BME280;67425;52.126;20.638;2023-07-31T01:02:32;57510.13;;;-144.78;53.33
55994;BME280;67425;52.126;20.638;2023-07-31T01:04:57;57497.66;;;-144.78;53.30
55994;BME280;67425;52.126;20.638;2023-07-31T01:07:49;57485.19;;;-144.78;52.56
55994;BME280;67425;52.126;20.638;2023-07-31T01:10:30;57510.13;;;-144.78;53.21
55994;BME280;67425;52.126;20.638;2023-07-31T01:12:59;57503.88;;;-144.78;52.18
55994;BME280;67425;52.126;20.638;2023-07-31T01:15:24;57501.81;;;-144.78;52.21
55994;BME280;67425;52.126;20.638;2023-07-31T01:17:49;57495.56;;;-144.78;52.38
55994;BME280;67425;52.126;20.638;2023-07-31T01:20:23;57524.66;;;-144.78;52.88
55994;BME280;67425;52.126;20.638;2023-07-31T01:26:29;57510.13;;;-144.78;52.33
55994;BME280;67425;52.126;20.638;2023-07-31T01:31:25;57508.03;;;-144.78;53.27
55994;BME280;67425;52.126;20.638;2023-07-31T01:33:53;57489.34;;;-144.78;52.61
55994;BME280;67425;52.126;20.638;2023-07-31T01:36:19;57495.56;;;-144.78;52.82
55994;BME280;67425;52.126;20.638;2023-07-31T01:38:45;57493.50;;;-144.78;52.87
55994;BME280;67425;52.126;20.638;2023-07-31T01:41:10;57516.34;;;-144.78;53.20
55994;BME280;67425;52.126;20.638;2023-07-31T01:43:35;57518.41;;;-144.78;53.55
55994;BME280;67425;52.126;20.638;2023-07-31T01:46:00;57522.56;;;-144.78;54.08
55994;BME280;67425;52.126;20.638;2023-07-31T01:48:26;57510.13;;;-144.78;54.37
55994;BME280;67425;52.126;20.638;2023-07-31T01:50:51;57514.25;;;-144.78;55.01
55994;BME280;67425;52.126;20.638;2023-07-31T01:53:17;57485.19;;;-144.78;54.59
55994;BME280;67425;52.126;20.638;2023-07-31T01:55:42;57518.41;;;-144.78;54.86
55994;BME280;67425;52.126;20.638;2023-07-31T01:58:07;57516.34;;;-144.78;54.90
55994;BME280;67425;52.126;20.638;2023-07-31T02:00:33;57503.88;;;-144.78;56.05
55994;BME280;67425;52.126;20.638;2023-07-31T02:02:59;57503.88;;;-144.78;56.09
55994;BME280;67425;52.126;20.638;2023-07-31T02:05:25;57501.81;;;-144.78;55.45
55994;BME280;67425;52.126;20.638;2023-07-31T02:07:50;57524.66;;;-144.78;55.40
55994;BME280;67425;52.126;20.638;2023-07-31T02:10:16;57520.50;;;-144.78;55.92
55994;BME280;67425;52.126;20.638;2023-07-31T02:12:41;57537.09;;;-144.78;56.00
55994;BME280;67425;52.126;20.638;2023-07-31T02:15:07;57512.19;;;-144.78;55.78
55994;BME280;67425;52.126;20.638;2023-07-31T02:17:32;57522.56;;;-144.78;56.48
55994;BME280;67425;52.126;20.638;2023-07-31T02:19:57;57535.03;;;-144.78;57.88
55994;BME280;67425;52.126;20.638;2023-07-31T02:22:23;57526.72;;;-144.78;59.09
55994;BME280;67425;52.126;20.638;2023-07-31T02:24:48;57499.72;;;-144.78;58.16
55994;BME280;67425;52.126;20.638;2023-07-31T02:27:13;57514.25;;;-144.78;59.33
55994;BME280;67425;52.126;20.638;2023-07-31T02:29:38;57541.25;;;-144.78;59.05
55994;BME280;67425;52.126;20.638;2023-07-31T02:32:04;57510.13;;;-144.78;58.74
55994;BME280;67425;52.126;20.638;2023-07-31T02:34:29;57539.19;;;-144.78;58.70
55994;BME280;67425;52.126;20.638;2023-07-31T02:36:55;57541.25;;;-144.78;58.91
55994;BME280;67425;52.126;20.638;2023-07-31T02:39:20;57520.50;;;-144.78;58.53
55994;BME280;67425;52.126;20.638;2023-07-31T02:41:46;57518.41;;;-144.78;58.19
55994;BME280;67425;52.126;20.638;2023-07-31T02:44:11;57516.34;;;-144.78;58.13
55994;BME280;67425;52.126;20.638;2023-07-31T02:46:39;57499.72;;;-144.78;57.41
55994;BME280;67425;52.126;20.638;2023-07-31T02:49:04;57510.13;;;-144.78;57.44
55994;BME280;67425;52.126;20.638;2023-07-31T02:51:30;57501.81;;;-144.78;56.79
55994;BME280;67425;52.126;20.638;2023-07-31T02:53:55;57497.66;;;-144.78;55.89
55994;BME280;67425;52.126;20.638;2023-07-31T02:56:20;57510.13;;;-144.78;56.02
55994;BME280;67425;52.126;20.638;2023-07-31T02:58:46;57493.50;;;-144.78;56.65
55994;BME280;67425;52.126;20.638;2023-07-31T03:01:11;57514.25;;;-144.78;56.99
55994;BME280;67425;52.126;20.638;2023-07-31T03:03:36;57532.97;;;-144.78;57.32
55994;BME280;67425;52.126;20.638;2023-07-31T03:06:02;57516.34;;;-144.78;57.49
55994;BME280;67425;52.126;20.638;2023-07-31T03:08:27;57522.56;;;-144.78;58.33
55994;BME280;67425;52.126;20.638;2023-07-31T03:10:52;57526.72;;;-144.78;58.50
55994;BME280;67425;52.126;20.638;2023-07-31T03:13:18;57528.81;;;-144.78;57.54
55994;BME280;67425;52.126;20.638;2023-07-31T03:15:43;57514.25;;;-144.78;58.28
55994;BME280;67425;52.126;20.638;2023-07-31T03:18:08;57516.34;;;-144.78;57.77
55994;BME280;67425;52.126;20.638;2023-07-31T03:20:34;57524.66;;;-144.78;56.86
55994;BME280;67425;52.126;20.638;2023-07-31T03:22:59;57541.25;;;-144.78;57.97
55994;BME280;67425;52.126;20.638;2023-07-31T03:25:24;57516.34;;;-144.78;57.79
55994;BME280;67425;52.126;20.638;2023-07-31T03:27:50;57526.72;;;-144.78;58.07
55994;BME280;67425;52.126;20.638;2023-07-31T03:30:15;57518.41;;;-144.78;57.85
55994;BME280;67425;52.126;20.638;2023-07-31T03:32:41;57518.41;;;-144.78;57.56
55994;BME280;67425;52.126;20.638;2023-07-31T03:35:06;57512.19;;;-144.78;58.94
55994;BME280;67425;52.126;20.638;2023-07-31T03:37:31;57526.72;;;-144.78;58.36
55994;BME280;67425;52.126;20.638;2023-07-31T03:39:57;57530.88;;;-144.78;56.85
55994;BME280;67425;52.126;20.638;2023-07-31T03:42:22;57539.19;;;-144.78;57.30
55994;BME280;67425;52.126;20.638;2023-07-31T03:44:47;57530.88;;;-144.78;57.47
55994;BME280;67425;52.126;20.638;2023-07-31T03:47:13;57524.66;;;-144.78;56.88
55994;BME280;67425;52.126;20.638;2023-07-31T03:49:38;57539.19;;;-144.78;56.92
55994;BME280;67425;52.126;20.638;2023-07-31T03:52:04;57497.66;;;-144.78;56.96
55994;BME280;67425;52.126;20.638;2023-07-31T03:54:29;57522.56;;;-144.78;57.71
55994;BME280;67425;52.126;20.638;2023-07-31T03:56:55;57512.19;;;-144.78;56.92
55994;BME280;67425;52.126;20.638;2023-07-31T03:59:20;57526.72;;;-144.78;57.53
55994;BME280;67425;52.126;20.638;2023-07-31T04:01:45;57514.25;;;-144.78;57.08
55994;BME280;67425;52.126;20.638;2023-07-31T04:04:11;57510.13;;;-144.78;56.73
55994;BME280;67425;52.126;20.638;2023-07-31T04:06:36;57528.81;;;-144.78;56.74
55994;BME280;67425;52.126;20.638;2023-07-31T04:09:02;57514.25;;;-144.78;57.10
55994;BME280;67425;52.126;20.638;2023-07-31T04:11:28;57526.72;;;-144.78;57.39
55994;BME280;67425;52.126;20.638;2023-07-31T04:13:53;57514.25;;;-144.78;57.04
55994;BME280;67425;52.126;20.638;2023-07-31T04:16:18;57501.81;;;-144.78;57.87
55994;BME280;67425;52.126;20.638;2023-07-31T04:18:44;57499.72;;;-144.78;57.05
55994;BME280;67425;52.126;20.638;2023-07-31T04:21:09;57547.50;;;-144.78;57.14
55994;BME280;67425;52.126;20.638;2023-07-31T04:23:35;57503.88;;;-144.78;57.32
55994;BME280;67425;52.126;20.638;2023-07-31T04:26:01;57499.72;;;-144.78;57.02
55994;BME280;67425;52.126;20.638;2023-07-31T04:28:26;57495.56;;;-144.78;57.97
55994;BME280;67425;52.126;20.638;2023-07-31T04:30:52;57522.56;;;-144.78;56.88
55994;BME280;67425;52.126;20.638;2023-07-31T04:33:18;57495.56;;;-144.78;56.65
55994;BME280;67425;52.126;20.638;2023-07-31T04:35:51;57530.88;;;-144.78;56.42
55994;BME280;67425;52.126;20.638;2023-07-31T04:38:18;57520.50;;;-144.78;56.52
55994;BME280;67425;52.126;20.638;2023-07-31T04:40:43;57518.41;;;-144.78;57.05
55994;BME280;67425;52.126;20.638;2023-07-31T04:43:09;57524.66;;;-144.78;56.22
55994;BME280;67425;52.126;20.638;2023-07-31T04:45:34;57493.50;;;-144.78;56.59
55994;BME280;67425;52.126;20.638;2023-07-31T04:47:59;57505.97;;;-144.78;56.79
55994;BME280;67425;52.126;20.638;2023-07-31T04:50:25;57520.50;;;-144.78;55.79
55994;BME280;67425;52.126;20.638;2023-07-31T04:52:50;57499.72;;;-144.78;56.31
55994;BME280;67425;52.126;20.638;2023-07-31T04:55:16;57524.66;;;-144.78;55.22
55994;BME280;67425;52.126;20.638;2023-07-31T04:57:41;57522.56;;;-144.78;55.79
55994;BME280;67425;52.126;20.638;2023-07-31T05:00:07;57497.66;;;-144.78;56.34
55994;BME280;67425;52.126;20.638;2023-07-31T05:02:32;57524.66;;;-144.78;56.75
55994;BME280;67425;52.126;20.638;2023-07-31T05:04:57;57501.81;;;-144.78;56.51
55994;BME280;67425;52.126;20.638;2023-07-31T05:07:23;57510.13;;;-144.78;57.11
55994;BME280;67425;52.126;20.638;2023-07-31T05:09:48;57514.25;;;-144.78;56.12
55994;BME280;67425;52.126;20.638;2023-07-31T05:12:13;57512.19;;;-144.78;57.06
55994;BME280;67425;52.126;20.638;2023-07-31T05:14:39;57501.81;;;-144.78;56.62
55994;BME280;67425;52.126;20.638;2023-07-31T05:17:04;57503.88;;;-144.78;56.51
55994;BME280;67425;52.126;20.638;2023-07-31T05:19:30;57495.56;;;-144.78;56.76
55994;BME280;67425;52.126;20.638;2023-07-31T05:21:55;57503.88;;;-144.78;56.28
55994;BME280;67425;52.126;20.638;2023-07-31T05:24:20;57524.66;;;-144.78;56.69
55994;BME280;67425;52.126;20.638;2023-07-31T05:26:46;57487.28;;;-144.78;55.33
55994;BME280;67425;52.126;20.638;2023-07-31T05:29:11;57514.25;;;-144.78;55.45
55994;BME280;67425;52.126;20.638;2023-07-31T05:31:36;57528.81;;;-144.78;57.17
55994;BME280;67425;52.126;20.638;2023-07-31T05:34:03;57505.97;;;-144.78;56.13
55994;BME280;67425;52.126;20.638;2023-07-31T05:36:29;57522.56;;;-144.78;55.96
55994;BME280;67425;52.126;20.638;2023-07-31T05:38:54;57520.50;;;-144.78;56.11
55994;BME280;67425;52.126;20.638;2023-07-31T05:41:19;57522.56;;;-144.78;55.05
55994;BME280;67425;52.126;20.638;2023-07-31T05:43:45;57514.25;;;-144.78;55.82
55994;BME280;67425;52.126;20.638;2023-07-31T05:46:10;57522.56;;;-144.78;56.51
55994;BME280;67425;52.126;20.638;2023-07-31T05:48:37;57505.97;;;-144.78;56.68
55994;BME280;67425;52.126;20.638;2023-07-31T05:51:02;57532.97;;;-144.78;56.69
55994;BME280;67425;52.126;20.638;2023-07-31T05:53:28;57518.41;;;-144.78;58.58
55994;BME280;67425;52.126;20.638;2023-07-31T05:55:53;57514.25;;;-144.78;57.42
55994;BME280;67425;52.126;20.638;2023-07-31T05:58:19;57528.81;;;-144.78;57.59
55994;BME280;67425;52.126;20.638;2023-07-31T06:00:44;57543.34;;;-144.78;58.25
55994;BME280;67425;52.126;20.638;2023-07-31T06:03:09;57483.13;;;-144.78;57.73
55994;BME280;67425;52.126;20.638;2023-07-31T06:05:35;57493.50;;;-144.78;57.42
55994;BME280;67425;52.126;20.638;2023-07-31T06:08:00;57524.66;;;-144.78;57.05
55994;BME280;67425;52.126;20.638;2023-07-31T06:10:26;57526.72;;;-144.78;57.28
55994;BME280;67425;52.126;20.638;2023-07-31T06:12:51;57503.88;;;-144.78;57.52
55994;BME280;67425;52.126;20.638;2023-07-31T06:15:17;57520.50;;;-144.78;57.30
55994;BME280;67425;52.126;20.638;2023-07-31T06:17:44;57530.88;;;-144.78;56.99
55994;BME280;67425;52.126;20.638;2023-07-31T06:20:09;57510.13;;;-144.78;56.49
55994;BME280;67425;52.126;20.638;2023-07-31T06:22:35;57493.50;;;-144.78;56.42
55994;BME280;67425;52.126;20.638;2023-07-31T06:25:00;57497.66;;;-144.78;55.99
55994;BME280;67425;52.126;20.638;2023-07-31T06:27:25;57522.56;;;-144.78;55.90
55994;BME280;67425;52.126;20.638;2023-07-31T06:29:51;57501.81;;;-144.78;57.00
55994;BME280;67425;52.126;20.638;2023-07-31T06:32:16;57530.88;;;-144.78;56.33
55994;BME280;67425;52.126;20.638;2023-07-31T06:34:42;57512.19;;;-144.78;55.55
55994;BME280;67425;52.126;20.638;2023-07-31T06:37:07;57522.56;;;-144.78;55.01
55994;BME280;67425;52.126;20.638;2023-07-31T06:39:33;57489.34;;;-144.78;55.29
55994;BME280;67425;52.126;20.638;2023-07-31T06:41:58;57512.19;;;-144.78;54.36
55994;BME280;67425;52.126;20.638;2023-07-31T06:44:23;57516.34;;;-144.78;54.89
55994;BME280;67425;52.126;20.638;2023-07-31T06:46:49;57497.66;;;-144.78;54.09
55994;BME280;67425;52.126;20.638;2023-07-31T06:49:14;57468.56;;;-144.78;53.72
55994;BME280;67425;52.126;20.638;2023-07-31T06:51:42;57474.81;;;-144.78;53.75
55994;BME280;67425;52.126;20.638;2023-07-31T06:54:08;57478.97;;;-144.78;52.50
55994;BME280;67425;52.126;20.638;2023-07-31T06:56:33;57503.88;;;-144.78;53.13
55994;BME280;67425;52.126;20.638;2023-07-31T06:58:59;57483.13;;;-144.78;52.99
55994;BME280;67425;52.126;20.638;2023-07-31T07:01:24;57501.81;;;-144.78;51.98
55994;BME280;67425;52.126;20.638;2023-07-31T07:03:49;57472.72;;;-144.78;51.99
55994;BME280;67425;52.126;20.638;2023-07-31T07:06:16;57478.97;;;-144.78;51.12
55994;BME280;67425;52.126;20.638;2023-07-31T07:08:42;57468.56;;;-144.78;50.92
55994;BME280;67425;52.126;20.638;2023-07-31T07:11:07;57458.19;;;-144.78;49.37
55994;BME280;67425;52.126;20.638;2023-07-31T07:13:32;57472.72;;;-144.78;50.34
55994;BME280;67425;52.126;20.638;2023-07-31T07:15:58;57456.13;;;-144.78;49.61
55994;BME280;67425;52.126;20.638;2023-07-31T07:18:23;57447.81;;;-144.78;49.20
55994;BME280;67425;52.126;20.638;2023-07-31T07:20:51;57433.28;;;-144.78;49.31
55994;BME280;67425;52.126;20.638;2023-07-31T07:23:16;57449.88;;;-144.78;50.15
55994;BME280;67425;52.126;20.638;2023-07-31T07:25:42;57472.72;;;-144.78;49.11
55994;BME280;67425;52.126;20.638;2023-07-31T07:28:08;57468.56;;;-144.78;49.91
55994;BME280;67425;52.126;20.638;2023-07-31T07:30:33;57472.72;;;-144.78;49.41
55994;BME280;67425;52.126;20.638;2023-07-31T07:32:58;57468.56;;;-144.78;48.92
55994;BME280;67425;52.126;20.638;2023-07-31T07:35:24;57478.97;;;-144.78;48.89
55994;BME280;67425;52.126;20.638;2023-07-31T07:37:49;57460.28;;;-144.78;47.54
55994;BME280;67425;52.126;20.638;2023-07-31T07:40:15;57439.50;;;-144.78;49.26
55994;BME280;67425;52.126;20.638;2023-07-31T07:42:40;57447.81;;;-144.78;47.99
55994;BME280;67425;52.126;20.638;2023-07-31T07:45:06;57451.97;;;-144.78;47.17
55994;BME280;67425;52.126;20.638;2023-07-31T07:47:32;57445.72;;;-144.78;46.99
55994;BME280;67425;52.126;20.638;2023-07-31T07:49:57;57435.34;;;-144.78;47.72
55994;BME280;67425;52.126;20.638;2023-07-31T07:52:22;57410.44;;;-144.78;47.39
55994;BME280;67425;52.126;20.638;2023-07-31T07:54:48;57433.28;;;-144.78;48.39
55994;BME280;67425;52.126;20.638;2023-07-31T07:57:13;57437.44;;;-144.78;47.61
55994;BME280;67425;52.126;20.638;2023-07-31T07:59:38;57464.41;;;-144.78;47.89
55994;BME280;67425;52.126;20.638;2023-07-31T08:02:04;57418.72;;;-144.78;45.93
55994;BME280;67425;52.126;20.638;2023-07-31T08:04:29;57437.44;;;-144.78;45.27
55994;BME280;67425;52.126;20.638;2023-07-31T08:06:54;57439.50;;;-144.78;46.88
55994;BME280;67425;52.126;20.638;2023-07-31T08:09:20;57412.50;;;-144.78;46.03
55994;BME280;67425;52.126;20.638;2023-07-31T08:11:45;57408.34;;;-144.78;44.58
55994;BME280;67425;52.126;20.638;2023-07-31T08:14:10;57412.50;;;-144.78;44.28
55994;BME280;67425;52.126;20.638;2023-07-31T08:16:36;57387.59;;;-144.78;43.24
55994;BME280;67425;52.126;20.638;2023-07-31T08:19:01;57431.19;;;-144.78;42.82
55994;BME280;67425;52.126;20.638;2023-07-31T08:21:26;57416.66;;;-144.78;42.99
55994;BME280;67425;52.126;20.638;2023-07-31T08:23:52;57427.03;;;-144.78;42.66
55994;BME280;67425;52.126;20.638;2023-07-31T08:26:18;57406.28;;;-144.78;41.67
55994;BME280;67425;52.126;20.638;2023-07-31T08:28:44;57414.59;;;-144.78;41.52
55994;BME280;67425;52.126;20.638;2023-07-31T08:31:09;57416.66;;;-144.78;42.02
55994;BME280;67425;52.126;20.638;2023-07-31T08:33:35;57414.59;;;-144.78;41.52
55994;BME280;67425;52.126;20.638;2023-07-31T08:36:01;57431.19;;;-144.78;41.62
55994;BME280;67425;52.126;20.638;2023-07-31T08:38:26;57427.03;;;-144.78;42.51
55994;BME280;67425;52.126;20.638;2023-07-31T08:40:52;57410.44;;;-144.78;41.69
55994;BME280;67425;52.126;20.638;2023-07-31T08:43:20;57389.66;;;-144.78;41.55
55994;BME280;67425;52.126;20.638;2023-07-31T08:45:46;57418.72;;;-144.78;42.88
55994;BME280;67425;52.126;20.638;2023-07-31T08:48:15;57377.19;;;-144.78;43.07
55994;BME280;67425;52.126;20.638;2023-07-31T08:50:41;57381.34;;;-144.78;42.97
55994;BME280;67425;52.126;20.638;2023-07-31T08:53:07;57402.13;;;-144.78;42.77
55994;BME280;67425;52.126;20.638;2023-07-31T08:55:32;57375.13;;;-144.78;42.59
55994;BME280;67425;52.126;20.638;2023-07-31T08:57:58;57397.97;;;-144.78;41.13
55994;BME280;67425;52.126;20.638;2023-07-31T09:00:24;57397.97;;;-144.78;41.94
55994;BME280;67425;52.126;20.638;2023-07-31T09:03:00;57429.13;;;-144.78;40.85
55994;BME280;67425;52.126;20.638;2023-07-31T09:05:31;57429.13;;;-144.78;42.96
55994;BME280;67425;52.126;20.638;2023-07-31T09:07:57;57383.44;;;-144.78;41.47
55994;BME280;67425;52.126;20.638;2023-07-31T09:10:23;57416.66;;;-144.78;39.60
55994;BME280;67425;52.126;20.638;2023-07-31T09:12:51;57427.03;;;-144.78;39.88
55994;BME280;67425;52.126;20.638;2023-07-31T09:15:16;57397.97;;;-144.78;40.99
55994;BME280;67425;52.126;20.638;2023-07-31T09:17:42;57391.75;;;-144.78;39.40
55994;BME280;67425;52.126;20.638;2023-07-31T09:20:20;57391.75;;;-144.78;38.27
55994;BME280;67425;52.126;20.638;2023-07-31T09:22:46;57379.28;;;-144.78;39.49
55994;BME280;67425;52.126;20.638;2023-07-31T09:25:23;57381.34;;;-144.78;38.84
55994;BME280;67425;52.126;20.638;2023-07-31T09:30:20;57381.34;;;-144.78;38.89
55994;BME280;67425;52.126;20.638;2023-07-31T09:32:47;57406.28;;;-144.78;38.50
55994;BME280;67425;52.126;20.638;2023-07-31T09:35:19;57397.97;;;-144.78;38.78
55994;BME280;67425;52.126;20.638;2023-07-31T09:37:56;57400.03;;;-144.78;38.05
55994;BME280;67425;52.126;20.638;2023-07-31T09:40:39;57400.03;;;-144.78;38.06
55994;BME280;67425;52.126;20.638;2023-07-31T09:43:06;57429.13;;;-144.78;37.21
55994;BME280;67425;52.126;20.638;2023-07-31T09:45:35;57393.81;;;-144.78;37.97
55994;BME280;67425;52.126;20.638;2023-07-31T09:48:01;57387.59;;;-144.78;36.78
55994;BME280;67425;52.126;20.638;2023-07-31T09:50:28;57395.88;;;-144.78;35.50
55994;BME280;67425;52.126;20.638;2023-07-31T09:52:54;57343.97;;;-144.78;34.81
55994;BME280;67425;52.126;20.638;2023-07-31T09:55:19;57402.13;;;-144.78;35.43
55994;BME280;67425;52.126;20.638;2023-07-31T09:57:48;57393.81;;;-144.78;35.49
55994;BME280;67425;52.126;20.638;2023-07-31T10:00:16;57395.88;;;-144.78;35.23
55994;BME280;67425;52.126;20.638;2023-07-31T10:02:45;57387.59;;;-144.78;33.85
55994;BME280;67425;52.126;20.638;2023-07-31T10:05:13;57381.34;;;-144.78;33.73
55994;BME280;67425;52.126;20.638;2023-07-31T10:07:39;57350.19;;;-144.78;34.77
55994;BME280;67425;52.126;20.638;2023-07-31T10:10:07;57391.75;;;-144.78;35.05
55994;BME280;67425;52.126;20.638;2023-07-31T10:12:36;57412.50;;;-144.78;34.72
55994;BME280;67425;52.126;20.638;2023-07-31T10:15:03;57377.19;;;-144.78;34.70
55994;BME280;67425;52.126;20.638;2023-07-31T10:17:30;57341.91;;;-144.78;35.87
55994;BME280;67425;52.126;20.638;2023-07-31T10:19:58;57389.66;;;-144.78;35.11
55994;BME280;67425;52.126;20.638;2023-07-31T10:22:25;57373.06;;;-144.78;34.62
55994;BME280;67425;52.126;20.638;2023-07-31T10:24:52;57402.13;;;-144.78;34.55
55994;BME280;67425;52.126;20.638;2023-07-31T10:27:19;57364.75;;;-144.78;35.36
55994;BME280;67425;52.126;20.638;2023-07-31T10:29:45;57383.44;;;-144.78;34.46
55994;BME280;67425;52.126;20.638;2023-07-31T10:32:13;57366.81;;;-144.78;35.20
55994;BME280;67425;52.126;20.638;2023-07-31T10:34:40;57406.28;;;-144.78;36.35
55994;BME280;67425;52.126;20.638;2023-07-31T10:37:24;57377.19;;;-144.78;33.64
55994;BME280;67425;52.126;20.638;2023-07-31T10:40:12;57364.75;;;-144.78;34.94
55994;BME280;67425;52.126;20.638;2023-07-31T10:45:11;57356.44;;;-144.78;35.58
55994;BME280;67425;52.126;20.638;2023-07-31T10:47:37;57354.34;;;-144.78;35.84
55994;BME280;67425;52.126;20.638;2023-07-31T10:50:20;57362.66;;;-144.78;33.82
55994;BME280;67425;52.126;20.638;2023-07-31T10:52:51;57364.75;;;-144.78;34.67
55994;BME280;67425;52.126;20.638;2023-07-31T10:55:41;57327.34;;;-144.78;33.94
55994;BME280;67425;52.126;20.638;2023-07-31T10:58:08;57310.75;;;-144.78;33.88
55994;BME280;67425;52.126;20.638;2023-07-31T11:00:37;57337.75;;;-144.78;33.64
55994;BME280;67425;52.126;20.638;2023-07-31T11:03:14;57379.28;;;-144.78;33.96
55994;BME280;67425;52.126;20.638;2023-07-31T11:05:49;57389.66;;;-144.78;34.13
55994;BME280;67425;52.126;20.638;2023-07-31T11:08:25;57385.50;;;-144.78;35.31
55994;BME280;67425;52.126;20.638;2023-07-31T11:13:29;57368.91;;;-144.78;35.08
55994;BME280;67425;52.126;20.638;2023-07-31T11:15:54;57350.19;;;-144.78;35.63
55994;BME280;67425;52.126;20.638;2023-07-31T11:18:19;57387.59;;;-144.78;35.87
55994;BME280;67425;52.126;20.638;2023-07-31T11:20:45;57362.66;;;-144.78;35.20
55994;BME280;67425;52.126;20.638;2023-07-31T11:23:11;57348.13;;;-144.78;34.71
55994;BME280;67425;52.126;20.638;2023-07-31T11:25:37;57383.44;;;-144.78;35.22
55994;BME280;67425;52.126;20.638;2023-07-31T11:28:10;57350.19;;;-144.78;36.28
55994;BME280;67425;52.126;20.638;2023-07-31T11:30:36;57375.13;;;-144.78;35.52
55994;BME280;67425;52.126;20.638;2023-07-31T11:33:03;57370.97;;;-144.78;35.46
55994;BME280;67425;52.126;20.638;2023-07-31T11:35:33;57377.19;;;-144.78;36.06
55994;BME280;67425;52.126;20.638;2023-07-31T11:37:59;57377.19;;;-144.78;36.48
55994;BME280;67425;52.126;20.638;2023-07-31T11:40:25;57375.13;;;-144.78;35.86
55994;BME280;67425;52.126;20.638;2023-07-31T11:42:57;57383.44;;;-144.78;36.44
55994;BME280;67425;52.126;20.638;2023-07-31T11:45:25;57402.13;;;-144.78;38.07
55994;BME280;67425;52.126;20.638;2023-07-31T11:47:52;57364.75;;;-144.78;35.14
55994;BME280;67425;52.126;20.638;2023-07-31T11:50:18;57375.13;;;-144.78;35.49
55994;BME280;67425;52.126;20.638;2023-07-31T11:52:46;57397.97;;;-144.78;36.54
55994;BME280;67425;52.126;20.638;2023-07-31T11:55:13;57377.19;;;-144.78;37.22
55994;BME280;67425;52.126;20.638;2023-07-31T11:57:43;57387.59;;;-144.78;36.72
55994;BME280;67425;52.126;20.638;2023-07-31T12:00:09;57410.44;;;-144.78;35.11
55994;BME280;67425;52.126;20.638;2023-07-31T12:02:37;57370.97;;;-144.78;34.75
55994;BME280;67425;52.126;20.638;2023-07-31T12:05:05;57414.59;;;-144.78;35.02
55994;BME280;67425;52.126;20.638;2023-07-31T12:07:46;57364.75;;;-144.78;34.34
55994;BME280;67425;52.126;20.638;2023-07-31T12:10:22;57375.13;;;-144.78;34.29
55994;BME280;67425;52.126;20.638;2023-07-31T12:12:56;57383.44;;;-144.78;34.58
55994;BME280;67425;52.126;20.638;2023-07-31T12:15:21;57406.28;;;-144.78;35.01
55994;BME280;67425;52.126;20.638;2023-07-31T12:17:47;57383.44;;;-144.78;34.51
55994;BME280;67425;52.126;20.638;2023-07-31T12:20:12;57375.13;;;-144.78;34.14
55994;BME280;67425;52.126;20.638;2023-07-31T12:22:38;57431.19;;;-144.78;33.76
55994;BME280;67425;52.126;20.638;2023-07-31T12:25:03;57422.88;;;-144.78;34.41
55994;BME280;67425;52.126;20.638;2023-07-31T12:27:32;57410.44;;;-144.78;33.97
55994;BME280;67425;52.126;20.638;2023-07-31T12:29:58;57395.88;;;-144.78;34.30
55994;BME280;67425;52.126;20.638;2023-07-31T12:32:24;57381.34;;;-144.78;33.80
55994;BME280;67425;52.126;20.638;2023-07-31T12:34:54;57412.50;;;-144.78;35.32
55994;BME280;67425;52.126;20.638;2023-07-31T12:37:23;57414.59;;;-144.78;35.96
55994;BME280;67425;52.126;20.638;2023-07-31T12:39:49;57383.44;;;-144.78;35.08
55994;BME280;67425;52.126;20.638;2023-07-31T12:42:17;57377.19;;;-144.78;34.88